sensor_id;sensor_type;location;lat;lon;timestamp;pressure;altitude;pressure_sealevel;temperature;humidity
40708;BME280;26392;42.696;23.350;2023-02-18T00:02:02;96057.06;;;3.76;84.36
40708;BME280;26392;42.696;23.350;2023-02-18T00:04:28;96056.84;;;3.78;85.01
40708;BME280;26392;42.696;23.350;2023-02-18T00:06:53;96060.13;;;3.73;84.47
40708;BME280;26392;42.696;23.350;2023-02-18T00:09:18;96058.91;;;3.76;84.19
40708;BME280;26392;42.696;23.350;2023-02-18T00:11:44;96052.22;;;3.72;83.96
40708;BME280;26392;42.696;23.350;2023-02-18T00:14:13;96039.38;;;3.67;84.06
40708;BME280;26392;42.696;23.350;2023-02-18T00:16:40;96042.94;;;3.74;83.53
40708;BME280;26392;42.696;23.350;2023-02-18T00:19:07;96043.75;;;3.75;83.40
40708;BME280;26392;42.696;23.350;2023-02-18T00:21:35;96037.09;;;3.71;83.45
40708;BME280;26392;42.696;23.350;2023-02-18T00:24:02;96026.50;;;3.69;82.92
40708;BME280;26392;42.696;23.350;2023-02-18T00:26:28;96021.09;;;3.69;83.74
40708;BME280;26392;42.696;23.350;2023-02-18T00:28:53;96016.56;;;3.70;84.42
40708;BME280;26392;42.696;23.350;2023-02-18T00:31:22;96015.28;;;3.66;84.44
40708;BME280;26392;42.696;23.350;2023-02-18T00:33:48;96014.19;;;3.60;85.44
40708;BME280;26392;42.696;23.350;2023-02-18T00:36:15;96009.72;;;3.67;84.43
40708;BME280;26392;42.696;23.350;2023-02-18T00:38:46;96006.50;;;3.57;84.21
40708;BME280;26392;42.696;23.350;2023-02-18T00:41:11;96014.78;;;3.55;83.71
40708;BME280;26392;42.696;23.350;2023-02-18T00:43:37;96009.16;;;3.50;83.93
40708;BME280;26392;42.696;23.350;2023-02-18T00:46:02;96006.22;;;3.45;83.81
40708;BME280;26392;42.696;23.350;2023-02-18T00:48:28;96016.06;;;3.38;83.66
40708;BME280;26392;42.696;23.350;2023-02-18T00:50:53;95991.34;;;3.28;84.01
40708;BME280;26392;42.696;23.350;2023-02-18T00:53:19;95996.13;;;3.32;84.41
40708;BME280;26392;42.696;23.350;2023-02-18T00:55:46;95998.00;;;3.32;85.18
40708;BME280;26392;42.696;23.350;2023-02-18T00:58:12;95994.47;;;3.31;85.14
40708;BME280;26392;42.696;23.350;2023-02-18T01:00:38;96005.69;;;3.35;85.00
40708;BME280;26392;42.696;23.350;2023-02-18T01:03:04;95996.09;;;3.26;85.90
40708;BME280;26392;42.696;23.350;2023-02-18T01:05:32;96012.69;;;3.29;85.79
40708;BME280;26392;42.696;23.350;2023-02-18T01:07:57;96002.34;;;3.33;86.71
40708;BME280;26392;42.696;23.350;2023-02-18T01:10:23;96009.16;;;3.29;86.79
40708;BME280;26392;42.696;23.350;2023-02-18T01:12:48;96005.06;;;3.11;88.29
40708;BME280;26392;42.696;23.350;2023-02-18T01:15:15;96002.28;;;2.83;91.10
40708;BME280;26392;42.696;23.350;2023-02-18T01:17:41;96006.63;;;2.84;91.37
40708;BME280;26392;42.696;23.350;2023-02-18T01:20:08;95998.94;;;2.81;91.62
40708;BME280;26392;42.696;23.350;2023-02-18T01:22:33;96006.47;;;2.71;91.77
40708;BME280;26392;42.696;23.350;2023-02-18T01:24:59;96007.44;;;2.63;92.54
40708;BME280;26392;42.696;23.350;2023-02-18T01:27:24;95999.44;;;2.70;92.54
40708;BME280;26392;42.696;23.350;2023-02-18T01:29:50;95994.16;;;2.62;92.91
40708;BME280;26392;42.696;23.350;2023-02-18T01:32:15;95991.03;;;2.58;93.44
40708;BME280;26392;42.696;23.350;2023-02-18T01:34:41;95987.41;;;2.51;94.29
40708;BME280;26392;42.696;23.350;2023-02-18T01:37:06;95991.28;;;2.49;95.21
40708;BME280;26392;42.696;23.350;2023-02-18T01:39:31;95999.66;;;2.54;95.13
40708;BME280;26392;42.696;23.350;2023-02-18T01:41:57;95994.09;;;2.55;95.09
40708;BME280;26392;42.696;23.350;2023-02-18T01:44:24;96000.75;;;2.59;95.55
40708;BME280;26392;42.696;23.350;2023-02-18T01:46:51;96000.69;;;2.53;95.31
40708;BME280;26392;42.696;23.350;2023-02-18T01:49:27;95998.72;;;2.61;95.63
40708;BME280;26392;42.696;23.350;2023-02-18T01:52:01;96004.19;;;2.53;96.18
40708;BME280;26392;42.696;23.350;2023-02-18T01:54:30;96009.13;;;2.50;96.47
40708;BME280;26392;42.696;23.350;2023-02-18T01:57:19;96014.69;;;2.48;96.82
40708;BME280;26392;42.696;23.350;2023-02-18T01:59:49;96010.06;;;2.42;97.18
40708;BME280;26392;42.696;23.350;2023-02-18T02:02:19;96005.97;;;2.31;96.58
40708;BME280;26392;42.696;23.350;2023-02-18T02:04:45;96000.31;;;2.26;97.12
40708;BME280;26392;42.696;23.350;2023-02-18T02:07:11;96001.06;;;2.20;97.98
40708;BME280;26392;42.696;23.350;2023-02-18T02:09:38;95999.41;;;2.19;98.97
40708;BME280;26392;42.696;23.350;2023-02-18T02:23:01;96013.38;;;2.29;98.55
40708;BME280;26392;42.696;23.350;2023-02-18T02:25:47;96004.69;;;2.27;99.36
40708;BME280;26392;42.696;23.350;2023-02-18T02:36:54;95984.19;;;2.41;98.07
40708;BME280;26392;42.696;23.350;2023-02-18T02:39:30;95981.38;;;2.49;98.23
40708;BME280;26392;42.696;23.350;2023-02-18T02:47:10;95974.59;;;2.53;97.48
40708;BME280;26392;42.696;23.350;2023-02-18T02:50:00;95962.09;;;2.45;98.15
40708;BME280;26392;42.696;23.350;2023-02-18T02:52:33;95975.06;;;2.57;97.41
40708;BME280;26392;42.696;23.350;2023-02-18T02:55:06;95983.94;;;2.57;96.72
40708;BME280;26392;42.696;23.350;2023-02-18T03:00:04;96005.06;;;2.39;98.57
40708;BME280;26392;42.696;23.350;2023-02-18T03:05:14;95990.41;;;2.27;100.00
40708;BME280;26392;42.696;23.350;2023-02-18T03:07:59;95998.09;;;2.15;100.00
40708;BME280;26392;42.696;23.350;2023-02-18T03:19:06;95995.22;;;2.01;100.00
40708;BME280;26392;42.696;23.350;2023-02-18T03:21:44;96005.16;;;2.01;98.95
40708;BME280;26392;42.696;23.350;2023-02-18T03:24:15;96013.91;;;1.65;100.00
40708;BME280;26392;42.696;23.350;2023-02-18T03:26:49;96021.69;;;1.60;100.00
40708;BME280;26392;42.696;23.350;2023-02-18T03:29:17;96021.00;;;1.43;100.00
40708;BME280;26392;42.696;23.350;2023-02-18T03:31:46;96035.44;;;1.42;100.00
40708;BME280;26392;42.696;23.350;2023-02-18T03:34:22;96047.63;;;1.30;100.00
40708;BME280;26392;42.696;23.350;2023-02-18T03:36:49;96036.13;;;1.21;100.00
40708;BME280;26392;42.696;23.350;2023-02-18T03:39:20;96035.38;;;1.27;100.00
40708;BME280;26392;42.696;23.350;2023-02-18T03:41:48;96034.25;;;1.22;100.00
40708;BME280;26392;42.696;23.350;2023-02-18T03:44:13;96035.34;;;1.36;100.00
40708;BME280;26392;42.696;23.350;2023-02-18T03:46:41;96024.59;;;1.36;100.00
40708;BME280;26392;42.696;23.350;2023-02-18T03:49:13;96039.19;;;1.33;100.00
40708;BME280;26392;42.696;23.350;2023-02-18T03:51:39;96039.03;;;1.34;100.00
40708;BME280;26392;42.696;23.350;2023-02-18T03:54:05;96048.56;;;1.37;100.00
40708;BME280;26392;42.696;23.350;2023-02-18T03:56:30;96033.50;;;1.51;100.00
40708;BME280;26392;42.696;23.350;2023-02-18T03:58:56;96042.22;;;1.53;100.00
40708;BME280;26392;42.696;23.350;2023-02-18T04:01:21;96033.72;;;1.49;100.00
40708;BME280;26392;42.696;23.350;2023-02-18T04:03:47;96038.44;;;1.62;100.00
40708;BME280;26392;42.696;23.350;2023-02-18T04:06:12;96037.09;;;1.66;100.00
40708;BME280;26392;42.696;23.350;2023-02-18T04:08:38;96042.84;;;1.78;100.00
40708;BME280;26392;42.696;23.350;2023-02-18T04:11:03;96037.66;;;1.76;100.00
40708;BME280;26392;42.696;23.350;2023-02-18T04:13:29;96036.72;;;1.84;100.00
40708;BME280;26392;42.696;23.350;2023-02-18T04:15:55;96038.97;;;1.81;100.00
40708;BME280;26392;42.696;23.350;2023-02-18T04:18:20;96024.97;;;1.85;100.00
40708;BME280;26392;42.696;23.350;2023-02-18T04:20:46;96017.47;;;1.95;100.00
40708;BME280;26392;42.696;23.350;2023-02-18T04:23:12;96008.78;;;1.93;100.00
40708;BME280;26392;42.696;23.350;2023-02-18T04:25:37;96016.47;;;1.96;100.00
40708;BME280;26392;42.696;23.350;2023-02-18T04:28:03;96005.81;;;2.03;100.00
40708;BME280;26392;42.696;23.350;2023-02-18T04:30:29;96012.59;;;1.99;100.00
40708;BME280;26392;42.696;23.350;2023-02-18T04:32:54;96011.09;;;1.96;100.00
40708;BME280;26392;42.696;23.350;2023-02-18T04:35:20;96014.16;;;1.93;100.00
40708;BME280;26392;42.696;23.350;2023-02-18T04:37:45;96012.28;;;2.09;100.00
40708;BME280;26392;42.696;23.350;2023-02-18T04:40:11;96018.78;;;1.99;100.00
40708;BME280;26392;42.696;23.350;2023-02-18T04:42:36;96012.75;;;1.97;100.00
40708;BME280;26392;42.696;23.350;2023-02-18T04:45:02;96020.81;;;1.83;100.00
40708;BME280;26392;42.696;23.350;2023-02-18T04:47:28;96017.88;;;1.54;100.00
40708;BME280;26392;42.696;23.350;2023-02-18T04:49:53;96019.41;;;1.72;100.00
40708;BME280;26392;42.696;23.350;2023-02-18T04:52:19;96016.72;;;1.72;100.00
40708;BME280;26392;42.696;23.350;2023-02-18T04:54:44;96033.22;;;1.84;100.00
40708;BME280;26392;42.696;23.350;2023-02-18T04:57:10;96032.84;;;1.87;100.00
40708;BME280;26392;42.696;23.350;2023-02-18T04:59:36;96035.00;;;1.91;100.00
40708;BME280;26392;42.696;23.350;2023-02-18T05:02:02;96031.94;;;1.79;100.00
40708;BME280;26392;42.696;23.350;2023-02-18T05:04:27;96045.06;;;1.74;100.00
40708;BME280;26392;42.696;23.350;2023-02-18T05:06:53;96046.75;;;1.90;100.00
40708;BME280;26392;42.696;23.350;2023-02-18T05:09:18;96037.50;;;2.08;100.00
40708;BME280;26392;42.696;23.350;2023-02-18T05:11:44;96022.66;;;2.12;100.00
40708;BME280;26392;42.696;23.350;2023-02-18T05:14:12;96026.66;;;2.31;100.00
40708;BME280;26392;42.696;23.350;2023-02-18T05:16:37;96018.69;;;2.37;100.00
40708;BME280;26392;42.696;23.350;2023-02-18T05:19:03;96019.78;;;2.43;100.00
40708;BME280;26392;42.696;23.350;2023-02-18T05:21:30;96007.00;;;2.45;100.00
40708;BME280;26392;42.696;23.350;2023-02-18T05:23:56;95998.59;;;2.55;100.00
40708;BME280;26392;42.696;23.350;2023-02-18T05:26:21;96015.03;;;2.60;100.00
40708;BME280;26392;42.696;23.350;2023-02-18T05:28:47;96026.28;;;2.63;99.62
40708;BME280;26392;42.696;23.350;2023-02-18T05:31:12;96029.69;;;2.72;99.25
40708;BME280;26392;42.696;23.350;2023-02-18T05:33:38;96007.28;;;2.72;98.99
40708;BME280;26392;42.696;23.350;2023-02-18T05:36:03;96015.19;;;2.73;98.49
40708;BME280;26392;42.696;23.350;2023-02-18T05:38:29;96036.88;;;2.86;97.21
40708;BME280;26392;42.696;23.350;2023-02-18T05:40:54;96026.50;;;2.83;96.62
40708;BME280;26392;42.696;23.350;2023-02-18T05:43:20;96034.03;;;2.73;97.59
40708;BME280;26392;42.696;23.350;2023-02-18T05:45:45;96024.09;;;2.74;98.30
40708;BME280;26392;42.696;23.350;2023-02-18T05:48:11;96023.88;;;2.90;97.59
40708;BME280;26392;42.696;23.350;2023-02-18T05:50:36;96027.00;;;2.94;96.91
40708;BME280;26392;42.696;23.350;2023-02-18T05:53:01;96033.97;;;3.03;95.45
40708;BME280;26392;42.696;23.350;2023-02-18T05:55:27;96035.78;;;2.81;95.22
40708;BME280;26392;42.696;23.350;2023-02-18T05:57:52;96044.03;;;2.79;96.06
40708;BME280;26392;42.696;23.350;2023-02-18T06:00:18;96043.88;;;3.02;95.60
40708;BME280;26392;42.696;23.350;2023-02-18T06:02:43;96031.78;;;3.13;94.26
40708;BME280;26392;42.696;23.350;2023-02-18T06:05:09;96045.00;;;3.29;93.27
40708;BME280;26392;42.696;23.350;2023-02-18T06:07:35;96025.91;;;3.46;92.10
40708;BME280;26392;42.696;23.350;2023-02-18T06:10:02;96040.63;;;3.71;90.45
40708;BME280;26392;42.696;23.350;2023-02-18T06:12:27;96045.88;;;3.79;88.50
40708;BME280;26392;42.696;23.350;2023-02-18T06:14:53;96050.75;;;3.91;87.89
40708;BME280;26392;42.696;23.350;2023-02-18T06:17:18;96036.91;;;4.00;86.59
40708;BME280;26392;42.696;23.350;2023-02-18T06:19:44;96034.06;;;4.09;86.54
40708;BME280;26392;42.696;23.350;2023-02-18T06:22:10;96036.41;;;4.18;85.94
40708;BME280;26392;42.696;23.350;2023-02-18T06:24:36;96027.97;;;4.28;84.68
40708;BME280;26392;42.696;23.350;2023-02-18T06:27:02;96021.78;;;4.34;84.32
40708;BME280;26392;42.696;23.350;2023-02-18T06:29:28;96026.41;;;4.47;82.41
40708;BME280;26392;42.696;23.350;2023-02-18T06:31:57;96015.63;;;4.54;82.38
40708;BME280;26392;42.696;23.350;2023-02-18T06:34:23;96020.69;;;4.70;81.65
40708;BME280;26392;42.696;23.350;2023-02-18T06:36:49;96021.41;;;4.85;80.26
40708;BME280;26392;42.696;23.350;2023-02-18T06:39:14;96030.78;;;4.96;79.55
40708;BME280;26392;42.696;23.350;2023-02-18T06:41:40;96028.56;;;5.13;77.80
40708;BME280;26392;42.696;23.350;2023-02-18T06:44:05;96027.56;;;5.27;75.67
40708;BME280;26392;42.696;23.350;2023-02-18T06:46:31;96027.59;;;5.41;75.77
40708;BME280;26392;42.696;23.350;2023-02-18T06:48:57;96017.00;;;5.52;73.75
40708;BME280;26392;42.696;23.350;2023-02-18T06:51:23;96023.00;;;5.48;73.93
40708;BME280;26392;42.696;23.350;2023-02-18T06:53:48;96021.34;;;5.53;73.94
40708;BME280;26392;42.696;23.350;2023-02-18T06:56:14;96030.69;;;5.51;73.65
40708;BME280;26392;42.696;23.350;2023-02-18T06:58:39;96020.13;;;5.49;73.45
40708;BME280;26392;42.696;23.350;2023-02-18T07:01:04;96027.00;;;5.72;72.73
40708;BME280;26392;42.696;23.350;2023-02-18T07:03:30;96032.59;;;5.90;72.38
40708;BME280;26392;42.696;23.350;2023-02-18T07:05:55;96025.56;;;6.02;71.58
40708;BME280;26392;42.696;23.350;2023-02-18T07:08:21;96022.22;;;6.14;68.55
40708;BME280;26392;42.696;23.350;2023-02-18T07:10:46;96026.78;;;6.13;67.03
40708;BME280;26392;42.696;23.350;2023-02-18T07:13:12;96028.88;;;6.04;66.40
40708;BME280;26392;42.696;23.350;2023-02-18T07:15:37;96014.72;;;6.22;65.97
40708;BME280;26392;42.696;23.350;2023-02-18T07:18:03;96005.53;;;6.37;64.64
40708;BME280;26392;42.696;23.350;2023-02-18T07:20:28;96010.53;;;6.33;64.38
40708;BME280;26392;42.696;23.350;2023-02-18T07:22:54;96005.50;;;6.50;64.11
40708;BME280;26392;42.696;23.350;2023-02-18T07:25:20;95994.84;;;6.62;64.06
40708;BME280;26392;42.696;23.350;2023-02-18T07:27:46;96008.09;;;6.77;62.90
40708;BME280;26392;42.696;23.350;2023-02-18T07:30:12;96009.94;;;6.83;62.70
40708;BME280;26392;42.696;23.350;2023-02-18T07:32:37;96015.44;;;6.63;63.74
40708;BME280;26392;42.696;23.350;2023-02-18T07:35:04;96024.44;;;6.43;63.86
40708;BME280;26392;42.696;23.350;2023-02-18T07:37:30;96026.78;;;6.33;65.59
40708;BME280;26392;42.696;23.350;2023-02-18T07:39:55;96032.41;;;6.12;65.07
40708;BME280;26392;42.696;23.350;2023-02-18T07:42:21;96025.56;;;5.96;66.58
40708;BME280;26392;42.696;23.350;2023-02-18T07:44:46;96026.56;;;6.28;66.11
40708;BME280;26392;42.696;23.350;2023-02-18T07:47:14;96008.19;;;6.57;65.68
40708;BME280;26392;42.696;23.350;2023-02-18T07:49:42;96029.50;;;6.91;64.47
40708;BME280;26392;42.696;23.350;2023-02-18T07:52:07;96026.94;;;7.10;62.27
40708;BME280;26392;42.696;23.350;2023-02-18T07:54:32;96024.34;;;7.28;61.23
40708;BME280;26392;42.696;23.350;2023-02-18T07:56:58;96002.97;;;7.45;59.76
40708;BME280;26392;42.696;23.350;2023-02-18T07:59:23;96018.66;;;7.68;59.20
40708;BME280;26392;42.696;23.350;2023-02-18T08:01:48;96019.88;;;7.72;57.48
40708;BME280;26392;42.696;23.350;2023-02-18T08:04:14;96024.22;;;8.05;56.47
40708;BME280;26392;42.696;23.350;2023-02-18T08:06:42;96009.41;;;8.26;55.62
40708;BME280;26392;42.696;23.350;2023-02-18T08:09:08;96024.19;;;8.55;55.25
40708;BME280;26392;42.696;23.350;2023-02-18T08:11:34;96020.59;;;8.80;53.82
40708;BME280;26392;42.696;23.350;2023-02-18T08:14:00;96008.78;;;9.04;53.10
40708;BME280;26392;42.696;23.350;2023-02-18T08:16:25;95994.72;;;9.37;53.16
40708;BME280;26392;42.696;23.350;2023-02-18T08:18:52;96007.22;;;9.57;51.73
40708;BME280;26392;42.696;23.350;2023-02-18T08:21:19;96005.22;;;9.52;51.13
40708;BME280;26392;42.696;23.350;2023-02-18T08:23:45;96018.13;;;9.69;50.49
40708;BME280;26392;42.696;23.350;2023-02-18T08:26:11;95997.59;;;9.84;50.51
40708;BME280;26392;42.696;23.350;2023-02-18T08:28:36;95993.94;;;10.02;49.88
40708;BME280;26392;42.696;23.350;2023-02-18T08:31:02;96008.75;;;10.06;49.56
40708;BME280;26392;42.696;23.350;2023-02-18T08:33:28;96003.44;;;10.23;49.50
40708;BME280;26392;42.696;23.350;2023-02-18T08:35:54;96011.84;;;10.22;48.88
40708;BME280;26392;42.696;23.350;2023-02-18T08:38:20;96010.09;;;10.63;48.58
40708;BME280;26392;42.696;23.350;2023-02-18T08:40:46;95990.88;;;10.69;47.80
40708;BME280;26392;42.696;23.350;2023-02-18T08:43:13;95998.78;;;10.94;47.38
40708;BME280;26392;42.696;23.350;2023-02-18T08:45:39;95996.50;;;11.03;46.91
40708;BME280;26392;42.696;23.350;2023-02-18T08:48:06;95988.69;;;11.07;46.75
40708;BME280;26392;42.696;23.350;2023-02-18T08:50:32;95995.91;;;11.13;46.57
40708;BME280;26392;42.696;23.350;2023-02-18T08:52:58;96010.25;;;11.08;46.43
40708;BME280;26392;42.696;23.350;2023-02-18T08:55:32;96009.22;;;10.97;46.65
40708;BME280;26392;42.696;23.350;2023-02-18T08:57:57;96004.56;;;11.10;46.56
40708;BME280;26392;42.696;23.350;2023-02-18T09:00:23;96000.94;;;11.33;46.35
40708;BME280;26392;42.696;23.350;2023-02-18T09:02:49;96000.06;;;11.44;45.88
40708;BME280;26392;42.696;23.350;2023-02-18T09:05:15;95997.72;;;11.36;46.08
40708;BME280;26392;42.696;23.350;2023-02-18T09:07:41;95983.91;;;11.14;46.20
40708;BME280;26392;42.696;23.350;2023-02-18T09:10:07;95999.91;;;11.22;46.01
40708;BME280;26392;42.696;23.350;2023-02-18T09:12:33;95989.91;;;11.28;45.94
40708;BME280;26392;42.696;23.350;2023-02-18T09:14:59;95994.16;;;11.35;45.50
40708;BME280;26392;42.696;23.350;2023-02-18T09:17:25;95995.31;;;11.39;45.51
40708;BME280;26392;42.696;23.350;2023-02-18T09:19:51;96001.25;;;11.36;45.37
40708;BME280;26392;42.696;23.350;2023-02-18T09:22:16;96005.56;;;11.32;45.25
40708;BME280;26392;42.696;23.350;2023-02-18T09:24:42;96004.59;;;11.38;45.57
40708;BME280;26392;42.696;23.350;2023-02-18T09:27:07;95993.88;;;11.49;45.42
40708;BME280;26392;42.696;23.350;2023-02-18T09:29:33;95983.22;;;11.64;44.91
40708;BME280;26392;42.696;23.350;2023-02-18T09:32:02;95970.00;;;11.73;44.66
40708;BME280;26392;42.696;23.350;2023-02-18T09:34:28;95979.84;;;12.02;44.28
40708;BME280;26392;42.696;23.350;2023-02-18T09:36:53;95975.91;;;12.32;44.00
40708;BME280;26392;42.696;23.350;2023-02-18T09:39:19;95971.91;;;12.57;43.59
40708;BME280;26392;42.696;23.350;2023-02-18T09:41:54;95966.28;;;12.85;42.40
40708;BME280;26392;42.696;23.350;2023-02-18T09:44:31;95966.22;;;13.02;41.61
40708;BME280;26392;42.696;23.350;2023-02-18T09:49:31;95976.16;;;13.08;41.15
40708;BME280;26392;42.696;23.350;2023-02-18T09:52:06;95962.06;;;13.21;41.36
40708;BME280;26392;42.696;23.350;2023-02-18T09:54:35;95986.66;;;13.38;41.28
40708;BME280;26392;42.696;23.350;2023-02-18T09:57:02;95964.94;;;13.54;40.95
40708;BME280;26392;42.696;23.350;2023-02-18T09:59:29;95952.94;;;13.11;41.39
40708;BME280;26392;42.696;23.350;2023-02-18T10:01:55;95961.63;;;13.08;41.79
40708;BME280;26392;42.696;23.350;2023-02-18T10:04:26;95953.69;;;13.06;41.78
40708;BME280;26392;42.696;23.350;2023-02-18T10:06:55;95955.34;;;13.29;41.56
40708;BME280;26392;42.696;23.350;2023-02-18T10:09:39;95953.50;;;13.35;41.24
40708;BME280;26392;42.696;23.350;2023-02-18T10:12:19;95933.06;;;13.42;41.06
40708;BME280;26392;42.696;23.350;2023-02-18T10:14:52;95941.06;;;13.76;40.88
40708;BME280;26392;42.696;23.350;2023-02-18T10:17:20;95943.75;;;14.03;40.34
40708;BME280;26392;42.696;23.350;2023-02-18T10:19:47;95933.09;;;14.07;40.03
40708;BME280;26392;42.696;23.350;2023-02-18T10:22:15;95941.25;;;14.39;39.57
40708;BME280;26392;42.696;23.350;2023-02-18T10:24:51;95929.81;;;14.47;39.19
40708;BME280;26392;42.696;23.350;2023-02-18T10:27:26;95920.44;;;14.81;38.61
40708;BME280;26392;42.696;23.350;2023-02-18T10:29:54;95913.63;;;14.93;38.16
40708;BME280;26392;42.696;23.350;2023-02-18T10:35:18;95918.69;;;15.27;36.77
40708;BME280;26392;42.696;23.350;2023-02-18T10:37:56;95920.00;;;15.14;35.29
40708;BME280;26392;42.696;23.350;2023-02-18T10:50:46;95889.91;;;15.55;32.71
40708;BME280;26392;42.696;23.350;2023-02-18T10:53:21;95882.84;;;15.80;32.65
40708;BME280;26392;42.696;23.350;2023-02-18T10:55:50;95884.75;;;15.95;32.81
40708;BME280;26392;42.696;23.350;2023-02-18T10:58:34;95876.78;;;15.78;32.53
40708;BME280;26392;42.696;23.350;2023-02-18T11:01:03;95879.78;;;15.76;32.52
40708;BME280;26392;42.696;23.350;2023-02-18T11:03:44;95881.16;;;15.79;32.75
40708;BME280;26392;42.696;23.350;2023-02-18T11:06:29;95866.59;;;15.63;32.72
40708;BME280;26392;42.696;23.350;2023-02-18T11:08:56;95876.53;;;15.74;34.34
40708;BME280;26392;42.696;23.350;2023-02-18T11:11:31;95878.69;;;15.87;32.63
40708;BME280;26392;42.696;23.350;2023-02-18T11:14:02;95865.19;;;15.65;32.49
40708;BME280;26392;42.696;23.350;2023-02-18T11:16:43;95854.47;;;15.54;32.76
40708;BME280;26392;42.696;23.350;2023-02-18T11:19:31;95847.88;;;15.39;33.14
40708;BME280;26392;42.696;23.350;2023-02-18T11:24:39;95843.13;;;14.99;33.63
40708;BME280;26392;42.696;23.350;2023-02-18T11:27:09;95840.41;;;14.99;33.29
40708;BME280;26392;42.696;23.350;2023-02-18T11:29:37;95831.88;;;14.90;33.72
40708;BME280;26392;42.696;23.350;2023-02-18T11:32:03;95826.66;;;14.94;34.11
40708;BME280;26392;42.696;23.350;2023-02-18T11:34:30;95826.38;;;14.95;33.90
40708;BME280;26392;42.696;23.350;2023-02-18T11:37:08;95822.50;;;14.81;33.91
40708;BME280;26392;42.696;23.350;2023-02-18T11:39:35;95817.03;;;14.91;34.28
40708;BME280;26392;42.696;23.350;2023-02-18T11:42:02;95802.25;;;14.97;34.27
40708;BME280;26392;42.696;23.350;2023-02-18T11:44:33;95814.03;;;14.93;34.24
40708;BME280;26392;42.696;23.350;2023-02-18T11:47:16;95814.56;;;14.85;34.64
40708;BME280;26392;42.696;23.350;2023-02-18T11:52:36;95806.63;;;15.04;34.86
40708;BME280;26392;42.696;23.350;2023-02-18T11:57:54;95789.13;;;15.40;34.51
40708;BME280;26392;42.696;23.350;2023-02-18T12:00:34;95794.06;;;15.54;34.79
40708;BME280;26392;42.696;23.350;2023-02-18T12:03:03;95782.81;;;15.60;34.83
40708;BME280;26392;42.696;23.350;2023-02-18T12:05:32;95774.28;;;15.62;34.75
40708;BME280;26392;42.696;23.350;2023-02-18T12:08:04;95767.19;;;15.71;34.95
40708;BME280;26392;42.696;23.350;2023-02-18T12:10:35;95769.34;;;15.89;34.62
40708;BME280;26392;42.696;23.350;2023-02-18T12:13:31;95769.63;;;15.83;34.92
40708;BME280;26392;42.696;23.350;2023-02-18T12:24:26;95775.91;;;16.04;34.80
40708;BME280;26392;42.696;23.350;2023-02-18T12:27:00;95770.69;;;16.02;34.97
40708;BME280;26392;42.696;23.350;2023-02-18T12:32:08;95741.88;;;15.84;35.47
40708;BME280;26392;42.696;23.350;2023-02-18T12:35:18;95736.38;;;15.64;35.75
40708;BME280;26392;42.696;23.350;2023-02-18T12:51:51;95701.47;;;15.90;36.18
40708;BME280;26392;42.696;23.350;2023-02-18T12:54:46;95714.34;;;16.05;36.01
40708;BME280;26392;42.696;23.350;2023-02-18T12:57:38;95702.75;;;16.13;35.28
40708;BME280;26392;42.696;23.350;2023-02-18T13:12:35;95705.97;;;16.90;32.79
40708;BME280;26392;42.696;23.350;2023-02-18T13:15:04;95706.22;;;16.94;32.69
40708;BME280;26392;42.696;23.350;2023-02-18T13:17:37;95700.50;;;16.85;32.76
40708;BME280;26392;42.696;23.350;2023-02-18T13:20:17;95697.53;;;16.76;33.12
40708;BME280;26392;42.696;23.350;2023-02-18T13:22:46;95701.84;;;16.88;34.03
40708;BME280;26392;42.696;23.350;2023-02-18T13:25:15;95711.78;;;16.89;34.16
40708;BME280;26392;42.696;23.350;2023-02-18T13:27:50;95706.28;;;16.89;34.66
40708;BME280;26392;42.696;23.350;2023-02-18T13:30:44;95705.72;;;16.87;35.26
40708;BME280;26392;42.696;23.350;2023-02-18T13:33:46;95704.69;;;16.72;35.00
40708;BME280;26392;42.696;23.350;2023-02-18T13:39:13;95706.72;;;16.46;35.61
40708;BME280;26392;42.696;23.350;2023-02-18T13:41:44;95704.28;;;16.45;35.95
40708;BME280;26392;42.696;23.350;2023-02-18T13:46:51;95699.16;;;16.23;35.72
40708;BME280;26392;42.696;23.350;2023-02-18T13:49:25;95704.97;;;16.16;36.00
40708;BME280;26392;42.696;23.350;2023-02-18T13:51:53;95701.91;;;16.23;35.78
40708;BME280;26392;42.696;23.350;2023-02-18T13:54:28;95705.81;;;16.11;36.03
40708;BME280;26392;42.696;23.350;2023-02-18T13:57:04;95694.28;;;16.04;35.96
40708;BME280;26392;42.696;23.350;2023-02-18T13:59:38;95697.00;;;16.09;36.14
40708;BME280;26392;42.696;23.350;2023-02-18T14:05:20;95697.09;;;15.84;36.46
40708;BME280;26392;42.696;23.350;2023-02-18T14:07:52;95696.81;;;15.85;36.41
40708;BME280;26392;42.696;23.350;2023-02-18T14:10:32;95690.53;;;15.54;36.49
40708;BME280;26392;42.696;23.350;2023-02-18T14:20:30;95711.97;;;15.42;37.13
40708;BME280;26392;42.696;23.350;2023-02-18T14:22:56;95703.72;;;15.47;36.99
40708;BME280;26392;42.696;23.350;2023-02-18T14:25:33;95705.94;;;15.30;37.38
40708;BME280;26392;42.696;23.350;2023-02-18T14:28:02;95710.59;;;15.34;37.21
40708;BME280;26392;42.696;23.350;2023-02-18T14:30:40;95705.66;;;15.36;37.30
40708;BME280;26392;42.696;23.350;2023-02-18T14:33:13;95716.91;;;15.40;37.39
40708;BME280;26392;42.696;23.350;2023-02-18T14:35:50;95721.31;;;15.26;37.30
40708;BME280;26392;42.696;23.350;2023-02-18T14:38:40;95709.25;;;15.16;37.48
40708;BME280;26392;42.696;23.350;2023-02-18T14:41:28;95721.31;;;15.05;38.06
40708;BME280;26392;42.696;23.350;2023-02-18T14:51:54;95707.06;;;14.93;38.28
40708;BME280;26392;42.696;23.350;2023-02-18T14:54:24;95702.09;;;14.85;38.32
40708;BME280;26392;42.696;23.350;2023-02-18T14:59:20;95699.88;;;14.87;38.85
40708;BME280;26392;42.696;23.350;2023-02-18T15:01:46;95696.84;;;14.78;38.71
40708;BME280;26392;42.696;23.350;2023-02-18T15:04:15;95700.16;;;14.75;38.89
40708;BME280;26392;42.696;23.350;2023-02-18T15:06:41;95699.06;;;14.76;38.97
40708;BME280;26392;42.696;23.350;2023-02-18T15:09:17;95701.50;;;14.67;38.98
40708;BME280;26392;42.696;23.350;2023-02-18T15:12:07;95686.44;;;14.60;39.15